Terminal Aerodrome Forecast
Issued by NWS Upton, NY

Home | Current Version | Previous Version | Text Only | Print | Product List | Glossary On
Versions: 1 2 3 4 5 6 7 8 9 10 11 12 13 14 15 16 17 18 19 20 21 22 23 24 25 26 27 28 29
000
FTUS41 KOKX 241700
TAFEWR
TAF
KEWR 241733Z 2418/2524 35009KT P6SM FEW030 SCT050 BKN250
     FM250400 36007KT P6SM BKN050
     FM252000 16008KT P6SM FEW050=

USA.gov is the U.S. government's official web portal to all federal, state and local government web resources and services.